Time;durP1;ratioP1;P1;durP2;ratioP2;P2;SDS_P1;SDS_P2;PMS_P1;PMS_P2;Temp;Humidity;BMP_temperature;BMP_pressure;BME280_temperature;BME280_humidity;BME280_pressure;Samples;Min_cycle;Max_cycle;Signal;HPM_P1;HPM_P2
2022/01/18 00:00:55;;;;;;;13.85;5.82;;;;;;;1.46;100.00;97079.28;5098692;28;20059;-76
2022/01/18 00:03:22;;;;;;;16.33;7.15;;;;;;;1.45;100.00;97077.69;5101983;28;20048;-76
2022/01/18 00:05:50;;;;;;;17.27;6.22;;;;;;;1.50;100.00;97083.16;5102471;28;20048;-76
2022/01/18 00:08:17;;;;;;;15.13;6.47;;;;;;;1.69;98.60;97081.06;5098804;28;20520;-76
2022/01/18 00:10:44;;;;;;;10.45;5.40;;;;;;;1.70;98.47;97090.50;5098606;28;20077;-76
2022/01/18 00:13:35;;;;;;;12.82;5.78;;;;;;;1.71;98.33;97084.28;5109290;28;20062;-76
2022/01/18 00:18:30;;;;;;;18.63;7.50;;;;;;;1.58;99.68;97086.66;5110001;28;20467;-76
2022/01/18 00:21:23;;;;;;;14.43;6.70;;;;;;;1.47;99.75;97083.50;5099537;28;20074;-76
2022/01/18 00:23:45;;;;;;;15.82;6.88;;;;;;;1.59;98.26;97085.69;5094991;28;20055;-76
2022/01/18 00:26:11;;;;;;;16.33;7.30;;;;;;;1.61;98.25;97096.69;5104826;28;20055;-76
2022/01/18 00:28:37;;;;;;;14.43;6.63;;;;;;;1.70;98.40;97093.09;5100491;28;20048;-75
2022/01/18 00:36:03;;;;;;;13.05;6.20;;;;;;;1.61;99.73;97101.88;5110000;28;20461;-75
2022/01/18 00:38:32;;;;;;;15.95;7.25;;;;;;;1.65;99.85;97110.94;5108595;28;20051;-75
2022/01/18 00:40:58;;;;;;;12.90;6.15;;;;;;;1.62;98.59;97116.50;5091136;28;20044;-76
2022/01/18 00:43:25;;;;;;;13.93;6.28;;;;;;;1.68;99.29;97115.78;5088972;28;20052;-76
2022/01/18 00:45:51;;;;;;;15.90;7.05;;;;;;;1.71;98.75;97125.81;5110143;28;20062;-76
2022/01/18 00:48:17;;;;;;;15.10;6.50;;;;;;;1.81;97.80;97128.19;5094279;28;20048;-76
2022/01/18 00:50:44;;;;;;;15.52;6.10;;;;;;;1.74;99.67;97135.88;5101550;28;20079;-75
2022/01/18 00:53:10;;;;;;;16.25;6.63;;;;;;;1.58;99.65;97138.56;5105352;28;20048;-76
2022/01/18 00:55:47;;;;;;;17.88;6.80;;;;;;;1.55;100.00;97143.13;5115165;28;20130;-76
2022/01/18 00:58:13;;;;;;;17.42;6.90;;;;;;;1.66;100.00;97138.53;5091263;28;20040;-76
2022/01/18 01:00:39;;;;;;;17.38;7.28;;;;;;;1.52;100.00;97127.91;5096693;28;20052;-76
2022/01/18 01:03:04;;;;;;;14.15;6.72;;;;;;;1.60;100.00;97149.59;5097570;28;20600;-76
2022/01/18 01:05:30;;;;;;;15.05;7.13;;;;;;;1.55;100.00;97143.13;5105678;28;20402;-76
2022/01/18 01:07:55;;;;;;;15.48;6.90;;;;;;;1.51;100.00;97143.66;5107981;28;20059;-76
2022/01/18 01:10:21;;;;;;;15.98;7.25;;;;;;;1.40;100.00;97137.06;5098868;28;20043;-75
2022/01/18 01:12:47;;;;;;;17.15;7.93;;;;;;;1.39;100.00;97143.22;5106430;28;20050;-76
2022/01/18 01:15:14;;;;;;;17.40;7.40;;;;;;;1.45;100.00;97152.94;5103837;28;20047;-76
2022/01/18 01:17:54;;;;;;;19.33;8.13;;;;;;;1.34;100.00;97155.91;5102061;28;20052;-76
2022/01/18 01:37:11;;;;;;;17.48;7.15;;;;;;;1.48;100.00;97188.91;5116113;27;20672;-76
2022/01/18 01:45:01;;;;;;;19.05;8.02;;;;;;;1.43;100.00;97175.63;5093596;28;20051;-76
2022/01/18 01:47:35;;;;;;;17.30;8.18;;;;;;;1.40;100.00;97181.16;5115259;27;20199;-76
2022/01/18 01:50:05;;;;;;;20.77;8.52;;;;;;;1.30;100.00;97175.38;5111370;27;20047;-76
2022/01/18 01:52:31;;;;;;;18.08;8.30;;;;;;;1.38;100.00;97188.31;5112663;28;20047;-76
2022/01/18 01:54:57;;;;;;;19.13;8.45;;;;;;;1.48;100.00;97178.53;5116053;27;20887;-76
2022/01/18 01:57:23;;;;;;;31.67;8.55;;;;;;;1.39;100.00;97174.34;5097540;27;20047;-76
2022/01/18 01:59:49;;;;;;;19.45;8.77;;;;;;;1.45;100.00;97168.50;5101622;28;20092;-75
2022/01/18 02:02:15;;;;;;;20.20;9.00;;;;;;;1.38;100.00;97168.34;5102489;28;20453;-76
2022/01/18 02:04:40;;;;;;;18.70;8.57;;;;;;;1.35;100.00;97157.50;5092046;28;20607;-76
2022/01/18 02:07:06;;;;;;;20.10;9.07;;;;;;;1.41;100.00;97162.03;5117803;27;20726;-76
2022/01/18 02:09:32;;;;;;;22.35;8.55;;;;;;;1.36;100.00;97153.94;5106652;27;20500;-76
2022/01/18 02:12:00;;;;;;;20.50;8.05;;;;;;;1.49;100.00;97153.38;5100869;28;20055;-75
2022/01/18 02:14:29;;;;;;;18.55;8.23;;;;;;;1.54;100.00;97154.47;5100457;27;20055;-75
2022/01/18 02:22:24;;;;;;;18.85;8.65;;;;;;;1.43;100.00;97160.06;5092839;28;20048;-75
2022/01/18 02:24:49;;;;;;;21.23;8.68;;;;;;;1.45;100.00;97147.75;5097764;27;20062;-76
2022/01/18 02:27:15;;;;;;;22.17;8.65;;;;;;;1.39;100.00;97153.59;5111197;28;20063;-75
2022/01/18 02:29:41;;;;;;;19.38;7.82;;;;;;;1.49;100.00;97149.00;5112109;27;20453;-75
2022/01/18 02:32:08;;;;;;;19.17;8.05;;;;;;;1.40;100.00;97144.84;5107830;28;20497;-75
2022/01/18 02:34:34;;;;;;;20.50;8.40;;;;;;;1.36;100.00;97148.75;5105110;28;20075;-75
2022/01/18 02:36:59;;;;;;;19.90;8.77;;;;;;;1.33;100.00;97139.50;5110650;28;20086;-75
2022/01/18 02:39:27;;;;;;;17.70;7.93;;;;;;;1.52;100.00;97138.28;5107345;28;20045;-76
2022/01/18 02:42:02;;;;;;;20.02;8.68;;;;;;;1.44;100.00;97127.97;5117277;27;20044;-75
2022/01/18 02:44:29;;;;;;;18.50;8.30;;;;;;;1.47;100.00;97135.38;5101481;27;20048;-75
2022/01/18 02:46:55;;;;;;;21.55;8.73;;;;;;;1.34;100.00;97129.97;5114267;27;20066;-75
2022/01/18 02:49:20;;;;;;;22.83;8.93;;;;;;;1.45;100.00;97142.56;5115247;27;20592;-75
2022/01/18 02:51:46;;;;;;;20.25;9.15;;;;;;;1.38;100.00;97139.03;5109801;28;20139;-76
2022/01/18 02:54:15;;;;;;;21.67;8.77;;;;;;;1.36;100.00;97144.34;5102123;28;20052;-75
2022/01/18 02:56:43;;;;;;;18.98;8.77;;;;;;;1.42;100.00;97153.25;5090603;28;20445;-76
2022/01/18 03:04:22;;;;;;;20.88;8.98;;;;;;;1.21;100.00;97146.88;5105219;27;20044;-75
2022/01/18 03:06:48;;;;;;;21.00;8.57;;;;;;;1.28;100.00;97141.00;5115210;27;20064;-75
2022/01/18 03:09:13;;;;;;;27.45;10.13;;;;;;;1.29;100.00;97147.81;5106456;27;20125;-75
2022/01/18 03:11:39;;;;;;;23.10;9.02;;;;;;;1.24;100.00;97150.13;5104169;28;20520;-75
2022/01/18 03:14:05;;;;;;;23.08;9.05;;;;;;;1.23;100.00;97159.66;5108909;28;20700;-75
2022/01/18 03:16:32;;;;;;;22.92;9.65;;;;;;;1.23;100.00;97164.06;5114412;27;20058;-75
2022/01/18 03:18:57;;;;;;;20.05;8.73;;;;;;;1.17;100.00;97170.72;5108684;27;20055;-75
2022/01/18 03:21:23;;;;;;;22.60;10.50;;;;;;;1.30;100.00;97170.19;5114172;27;20416;-75
2022/01/18 03:23:53;;;;;;;22.48;10.10;;;;;;;1.27;100.00;97165.34;5113618;27;20536;-75
2022/01/18 03:26:19;;;;;;;21.75;8.73;;;;;;;1.32;100.00;97165.63;5104510;28;20051;-75
2022/01/18 03:28:45;;;;;;;23.25;9.65;;;;;;;1.49;100.00;97167.16;5110089;28;20047;-76
2022/01/18 03:31:11;;;;;;;22.27;9.98;;;;;;;1.53;100.00;97160.66;5098959;28;20679;-76
2022/01/18 03:33:37;;;;;;;24.58;9.55;;;;;;;1.58;100.00;97161.91;5096936;28;20402;-76
2022/01/18 03:36:03;;;;;;;19.77;8.98;;;;;;;1.46;100.00;97159.72;5098624;28;20059;-76
2022/01/18 03:38:31;;;;;;;23.70;10.35;;;;;;;1.48;100.00;97168.16;5108178;28;20134;-76
2022/01/18 03:41:00;;;;;;;23.40;9.98;;;;;;;1.49;100.00;97161.16;5092611;28;20051;-75
2022/01/18 03:43:26;;;;;;;23.08;9.98;;;;;;;1.33;100.00;97170.63;5109555;28;20135;-76
2022/01/18 03:45:55;;;;;;;23.40;10.27;;;;;;;1.41;100.00;97162.03;5096800;28;20122;-76
2022/01/18 03:48:49;;;;;;;21.05;10.32;;;;;;;1.51;100.00;97167.81;5093533;28;20054;-75
2022/01/18 03:51:10;;;;;;;23.92;9.75;;;;;;;1.48;100.00;97168.16;5105765;28;20051;-75
2022/01/18 03:53:38;;;;;;;25.25;10.18;;;;;;;1.47;100.00;97168.31;5106269;28;20277;-76
2022/01/18 03:56:03;;;;;;;20.60;9.52;;;;;;;1.49;100.00;97169.75;5106299;28;20056;-75
2022/01/18 03:58:29;;;;;;;22.13;10.43;;;;;;;1.38;100.00;97172.75;5101113;28;20126;-76
2022/01/18 04:00:55;;;;;;;22.45;9.95;;;;;;;1.52;100.00;97173.78;5097196;28;20398;-74
2022/01/18 04:03:20;;;;;;;22.02;9.50;;;;;;;1.48;100.00;97178.53;5110081;28;20054;-74
2022/01/18 04:05:46;;;;;;;26.90;10.70;;;;;;;1.38;100.00;97177.94;5092889;28;20040;-75
2022/01/18 04:08:12;;;;;;;24.48;9.55;;;;;;;1.45;100.00;97184.06;5092655;28;20044;-76
2022/01/18 04:10:38;;;;;;;20.38;9.30;;;;;;;1.42;100.00;97174.00;5094521;28;20150;-75
2022/01/18 04:13:03;;;;;;;23.90;9.90;;;;;;;1.43;100.00;97178.22;5108291;28;20122;-76
2022/01/18 04:15:31;;;;;;;26.30;10.30;;;;;;;1.37;100.00;97178.91;5109705;27;20055;-76
2022/01/18 04:26:05;;;;;;;22.80;10.73;;;;;;;1.28;100.00;97187.69;5096148;28;20116;-76
2022/01/18 04:28:44;;;;;;;24.35;10.23;;;;;;;1.30;100.00;97190.94;5094566;28;20048;-76
2022/01/18 04:31:10;;;;;;;32.40;11.07;;;;;;;1.34;100.00;97192.22;5098193;28;20130;-75
2022/01/18 04:33:37;;;;;;;24.23;10.25;;;;;;;1.31;100.00;97195.16;5100140;28;20093;-76
2022/01/18 04:36:04;;;;;;;26.60;10.55;;;;;;;1.36;100.00;97195.44;5106894;28;20096;-76
2022/01/18 04:38:30;;;;;;;20.55;9.35;;;;;;;1.32;100.00;97188.97;5101459;28;20075;-75
2022/01/18 04:41:01;;;;;;;22.55;9.95;;;;;;;1.43;100.00;97196.38;5099994;28;20059;-76
2022/01/18 04:48:55;;;;;;;22.95;10.43;;;;;;;1.30;100.00;97196.13;5091539;28;20056;-76
2022/01/18 04:51:21;;;;;;;22.85;9.32;;;;;;;1.46;100.00;97198.63;5091652;28;20069;-76
2022/01/18 04:53:55;;;;;;;25.92;11.13;;;;;;;1.36;100.00;97205.81;5103919;28;20043;-76
2022/01/18 04:57:51;;;;;;;;;;;;;;;1.42;100.00;97210.31;5092113;28;20043;-75
2022/01/18 04:59:15;;;;;;;34.33;11.95;;;;;;;1.45;100.00;97212.59;5112441;28;19924;-76
2022/01/18 05:01:45;;;;;;;26.02;10.55;;;;;;;1.30;100.00;97211.69;5126550;27;20043;-76
2022/01/18 05:04:11;;;;;;;22.90;10.88;;;;;;;1.32;100.00;97209.72;5113111;27;21607;-76
2022/01/18 05:06:36;;;;;;;28.15;10.90;;;;;;;1.23;100.00;97210.75;5126492;27;20142;-75
2022/01/18 05:09:09;;;;;;;29.42;11.20;;;;;;;1.23;100.00;97221.13;5106328;28;20120;-76
2022/01/18 05:11:41;;;;;;;31.65;11.88;;;;;;;1.20;100.00;97217.88;5102210;28;20048;-76
2022/01/18 05:14:23;;;;;;;28.23;11.57;;;;;;;1.10;100.00;97209.47;5099541;28;20039;-75
2022/01/18 05:24:21;;;;;;;27.40;10.50;;;;;;;1.21;100.00;97219.50;5122374;27;20723;-75
2022/01/18 05:26:46;;;;;;;24.83;10.48;;;;;;;1.19;100.00;97220.63;5104434;28;20047;-76
2022/01/18 05:29:12;;;;;;;24.35;10.07;;;;;;;1.05;100.00;97219.56;5113279;28;20039;-75
2022/01/18 05:31:38;;;;;;;25.17;10.45;;;;;;;1.06;100.00;97225.53;5105883;28;20040;-75
2022/01/18 05:34:04;;;;;;;24.25;10.23;;;;;;;1.08;100.00;97228.75;5100315;28;20417;-76
2022/01/18 05:36:29;;;;;;;25.00;10.98;;;;;;;0.96;100.00;97217.94;5092299;28;20113;-76
2022/01/18 05:38:55;;;;;;;29.15;10.98;;;;;;;0.84;100.00;97218.28;5106208;28;20052;-75
2022/01/18 05:41:20;;;;;;;26.05;10.73;;;;;;;0.88;100.00;97220.53;5102341;28;20051;-76
2022/01/18 05:43:46;;;;;;;30.45;11.07;;;;;;;0.83;100.00;97221.88;5110084;28;20089;-76
2022/01/18 05:46:12;;;;;;;25.67;11.18;;;;;;;0.85;100.00;97214.72;5105553;28;20130;-76
2022/01/18 05:48:38;;;;;;;32.80;11.25;;;;;;;0.83;100.00;97221.03;5098982;28;20551;-76
2022/01/18 05:51:04;;;;;;;27.95;10.43;;;;;;;0.72;100.00;97219.63;5099481;28;20047;-75
2022/01/18 05:53:31;;;;;;;22.58;9.35;;;;;;;0.55;100.00;97218.00;5097932;28;20048;-75
2022/01/18 05:55:58;;;;;;;26.85;10.38;;;;;;;0.49;100.00;97220.28;5099842;28;20048;-76
2022/01/18 05:58:23;;;;;;;27.40;9.77;;;;;;;0.34;100.00;97216.72;5099212;28;20585;-76
2022/01/18 06:00:52;;;;;;;26.70;9.48;;;;;;;0.37;100.00;97216.41;5100514;28;20048;-75
2022/01/18 06:03:27;;;;;;;25.83;10.10;;;;;;;0.22;100.00;97223.22;5110645;28;20706;-75
2022/01/18 06:08:39;;;;;;;26.73;9.48;;;;;;;0.20;100.00;97219.97;5106795;28;20513;-75
2022/01/18 06:11:04;;;;;;;27.88;10.57;;;;;;;0.13;100.00;97225.78;5098961;28;20051;-75
2022/01/18 06:13:30;;;;;;;24.80;10.45;;;;;;;0.11;100.00;97232.91;5110680;28;20052;-76
2022/01/18 06:15:56;;;;;;;24.58;9.45;;;;;;;0.14;100.00;97221.41;5097960;28;20467;-76
2022/01/18 06:18:22;;;;;;;25.45;9.35;;;;;;;0.01;100.00;97232.25;5102132;28;20557;-76
2022/01/18 06:20:48;;;;;;;25.27;10.73;;;;;;;-0.27;100.00;97239.50;5106909;28;20044;-76
2022/01/18 06:23:14;;;;;;;25.20;10.40;;;;;;;-0.49;100.00;97244.25;5103999;28;20039;-76
2022/01/18 06:25:40;;;;;;;31.17;11.73;;;;;;;-0.65;100.00;97242.41;5112448;27;21006;-76
2022/01/18 06:28:06;;;;;;;28.65;11.45;;;;;;;-0.72;100.00;97246.56;5113462;27;20054;-76
2022/01/18 06:30:31;;;;;;;30.20;10.23;;;;;;;-0.75;100.00;97249.47;5096712;28;20052;-76
2022/01/18 06:32:57;;;;;;;29.17;11.82;;;;;;;-0.78;100.00;97247.22;5107509;28;20051;-75
2022/01/18 06:35:22;;;;;;;24.73;9.93;;;;;;;-0.83;100.00;97250.25;5105898;28;20070;-76
2022/01/18 06:37:48;;;;;;;35.67;11.52;;;;;;;-0.89;100.00;97259.44;5105867;28;20046;-75
2022/01/18 06:40:14;;;;;;;30.25;11.60;;;;;;;-0.82;100.00;97251.06;5091995;28;20133;-76
2022/01/18 06:42:40;;;;;;;32.75;11.57;;;;;;;-0.75;100.00;97267.56;5110806;28;20831;-76
2022/01/18 06:45:07;;;;;;;32.40;10.85;;;;;;;-0.75;100.00;97262.41;5108232;28;20067;-76
2022/01/18 06:47:32;;;;;;;41.63;12.57;;;;;;;-0.75;100.00;97267.56;5099663;28;20108;-76
2022/01/18 06:49:58;;;;;;;37.97;12.55;;;;;;;-0.57;100.00;97286.41;5095212;28;20059;-75
2022/01/18 06:52:23;;;;;;;36.25;11.88;;;;;;;-0.39;100.00;97283.75;5095610;28;20046;-76
2022/01/18 06:54:49;;;;;;;36.20;12.10;;;;;;;-0.30;100.00;97287.19;5101806;27;20497;-73
2022/01/18 06:57:14;;;;;;;41.63;13.63;;;;;;;-0.03;100.00;97295.66;5096673;28;20097;-74
2022/01/18 06:59:40;;;;;;;39.05;12.68;;;;;;;0.02;100.00;97296.00;5093704;28;20075;-77
2022/01/18 07:02:06;;;;;;;38.38;13.25;;;;;;;0.12;100.00;97301.84;5101699;27;20409;-77
2022/01/18 07:04:31;;;;;;;40.53;13.75;;;;;;;0.09;100.00;97286.63;5107365;27;20043;-77
2022/01/18 07:06:57;;;;;;;41.40;14.30;;;;;;;0.20;100.00;97302.81;5095493;27;20068;-75
2022/01/18 07:09:23;;;;;;;40.58;13.85;;;;;;;0.30;100.00;97306.91;5105087;27;20048;-75
2022/01/18 07:11:56;;;;;;;36.85;13.23;;;;;;;0.30;100.00;97304.31;5094549;28;20040;-76
2022/01/18 07:14:23;;;;;;;34.00;13.73;;;;;;;0.36;100.00;97318.41;5092216;28;20059;-76
2022/01/18 07:16:49;;;;;;;36.00;12.98;;;;;;;0.44;100.00;97315.81;5111154;27;20464;-76
2022/01/18 07:19:15;;;;;;;31.90;12.48;;;;;;;0.51;100.00;97316.78;5093264;28;20091;-76
2022/01/18 07:21:41;;;;;;;30.67;12.25;;;;;;;0.48;100.00;97322.28;5092690;27;20047;-77
2022/01/18 07:24:16;;;;;;;30.13;12.15;;;;;;;0.51;100.00;97321.97;5111334;27;20066;-77
2022/01/18 07:26:43;;;;;;;34.13;12.23;;;;;;;0.64;100.00;97320.69;5111663;27;20069;-75
2022/01/18 07:29:08;;;;;;;30.50;12.48;;;;;;;0.68;100.00;97321.97;5099572;27;20493;-76
2022/01/18 07:31:34;;;;;;;31.92;11.77;;;;;;;0.66;100.00;97324.75;5102499;28;20123;-77
2022/01/18 07:34:00;;;;;;;33.95;12.93;;;;;;;0.70;100.00;97325.22;5109773;27;20699;-76
2022/01/18 07:36:25;;;;;;;30.15;11.88;;;;;;;0.78;100.00;97322.63;5105003;28;20035;-76
2022/01/18 07:38:51;;;;;;;27.05;11.27;;;;;;;0.64;100.00;97331.03;5107273;28;20161;-77
2022/01/18 07:41:23;;;;;;;30.80;11.93;;;;;;;0.61;100.00;97332.16;5063718;27;20387;-78
2022/01/18 07:43:49;;;;;;;33.50;11.73;;;;;;;0.80;100.00;97340.59;5069476;28;20078;-77
2022/01/18 07:46:14;;;;;;;33.13;13.00;;;;;;;0.71;100.00;97337.19;5070567;28;20049;-78
2022/01/18 07:48:40;;;;;;;28.67;12.50;;;;;;;0.85;100.00;97349.50;5053769;28;20060;-78
2022/01/18 07:51:06;;;;;;;31.02;12.07;;;;;;;0.59;100.00;97354.84;5059726;28;20056;-79
2022/01/18 07:53:32;;;;;;;34.00;12.85;;;;;;;0.55;100.00;97360.50;5068404;28;20116;-80
2022/01/18 07:55:57;;;;;;;34.47;13.10;;;;;;;0.71;100.00;97363.13;5063347;28;20115;-79
2022/01/18 07:58:23;;;;;;;29.63;11.77;;;;;;;0.90;100.00;97366.38;5065447;28;20505;-79
2022/01/18 08:00:49;;;;;;;37.75;12.88;;;;;;;1.03;100.00;97371.88;5060109;28;20037;-80
2022/01/18 08:03:14;;;;;;;28.05;11.68;;;;;;;1.01;100.00;97364.25;5064496;28;20040;-78
2022/01/18 08:05:40;;;;;;;30.77;12.05;;;;;;;1.02;100.00;97372.84;5062750;28;20029;-79
2022/01/18 08:08:06;;;;;;;30.45;11.45;;;;;;;1.05;100.00;97359.56;5063639;28;20494;-78
2022/01/18 08:10:32;;;;;;;28.40;11.70;;;;;;;1.15;100.00;97369.75;5053429;28;20056;-79
2022/01/18 08:13:03;;;;;;;33.78;12.35;;;;;;;1.20;100.00;97360.50;5065632;28;20053;-78
2022/01/18 08:15:37;;;;;;;31.27;12.68;;;;;;;1.23;100.00;97359.38;5063516;28;20102;-81
2022/01/18 08:18:10;;;;;;;30.23;12.50;;;;;;;1.19;100.00;97371.88;5050334;28;20037;-77
2022/01/18 08:20:36;;;;;;;38.13;12.80;;;;;;;1.30;100.00;97357.75;5060820;28;20053;-78
2022/01/18 08:23:01;;;;;;;35.40;12.32;;;;;;;1.38;100.00;97360.31;5049284;28;20036;-77
2022/01/18 08:25:27;;;;;;;31.27;12.07;;;;;;;1.41;100.00;97364.38;5062035;28;20056;-79
2022/01/18 08:27:53;;;;;;;31.67;11.43;;;;;;;1.44;100.00;97364.06;5060587;28;20037;-80
2022/01/18 08:30:20;;;;;;;28.10;11.43;;;;;;;1.43;100.00;97354.63;5052468;28;20141;-79
2022/01/18 08:32:48;;;;;;;32.00;12.20;;;;;;;1.45;100.00;97360.50;5066376;28;20045;-76
2022/01/18 08:35:14;;;;;;;32.80;12.32;;;;;;;1.43;100.00;97357.22;5059488;28;20041;-77
2022/01/18 08:37:40;;;;;;;34.35;11.73;;;;;;;1.44;100.00;97363.22;5063069;28;20045;-79
2022/01/18 08:40:06;;;;;;;30.30;11.20;;;;;;;1.49;100.00;97356.56;5053310;28;20055;-75
2022/01/18 08:42:32;;;;;;;26.95;11.25;;;;;;;1.48;100.00;97360.16;5057520;28;20090;-75
2022/01/18 08:44:58;;;;;;;30.52;12.38;;;;;;;1.42;100.00;97365.97;5049181;28;20040;-80
2022/01/18 08:47:24;;;;;;;31.83;12.13;;;;;;;1.36;100.00;97353.69;5062820;28;20041;-80
2022/01/18 08:49:50;;;;;;;30.42;11.77;;;;;;;1.50;100.00;97353.00;5050489;28;20491;-80
2022/01/18 08:52:16;;;;;;;33.03;12.00;;;;;;;1.54;100.00;97349.09;5054052;28;20049;-79
2022/01/18 08:54:43;;;;;;;31.90;11.10;;;;;;;1.56;100.00;97360.09;5054510;28;20040;-80
2022/01/18 08:57:12;;;;;;;30.52;11.85;;;;;;;1.46;100.00;97359.50;5049375;28;20068;-79
2022/01/18 08:59:41;;;;;;;36.38;10.40;;;;;;;1.55;100.00;97365.47;5055011;28;20110;-80
2022/01/18 09:02:08;;;;;;;26.52;10.65;;;;;;;1.46;100.00;97367.28;5041679;28;20638;-78
2022/01/18 09:04:35;;;;;;;29.85;11.55;;;;;;;1.48;100.00;97367.09;5048305;28;20065;-78
2022/01/18 09:07:08;;;;;;;25.90;10.63;;;;;;;1.65;100.00;97368.72;5035745;28;20145;-77
2022/01/18 09:09:35;;;;;;;29.15;10.63;;;;;;;1.69;100.00;97371.75;5040549;28;20046;-78
2022/01/18 09:12:00;;;;;;;32.40;11.73;;;;;;;1.70;100.00;97370.81;5044942;28;20041;-78
2022/01/18 09:14:26;;;;;;;27.58;10.73;;;;;;;1.72;100.00;97368.84;5045176;28;20052;-76
2022/01/18 09:16:52;;;;;;;26.05;11.30;;;;;;;1.78;100.00;97365.59;5048839;28;20514;-78
2022/01/18 09:19:17;;;;;;;30.10;11.52;;;;;;;1.82;100.00;97372.03;5053504;28;20044;-81
2022/01/18 09:21:46;;;;;;;27.65;10.40;;;;;;;1.88;100.00;97370.56;5051917;28;20034;-76
2022/01/18 09:24:13;;;;;;;31.67;12.40;;;;;;;1.89;100.00;97373.00;5049218;28;20036;-79
2022/01/18 09:26:38;;;;;;;30.25;12.02;;;;;;;1.65;100.00;97371.31;5051509;28;20498;-76
2022/01/18 09:29:06;;;;;;;29.95;11.70;;;;;;;1.87;100.00;97374.16;5047022;28;20079;-76
2022/01/18 09:31:35;;;;;;;28.80;10.75;;;;;;;1.94;100.00;97374.28;5047887;28;20111;-76
2022/01/18 09:34:00;;;;;;;27.48;9.98;;;;;;;1.95;100.00;97381.09;5043994;28;20052;-75
2022/01/18 09:36:26;;;;;;;23.95;8.75;;;;;;;1.95;100.00;97387.09;5046733;28;20049;-76
2022/01/18 09:38:51;;;;;;;20.95;8.40;;;;;;;1.86;100.00;97377.72;5047597;28;20037;-76
2022/01/18 09:41:20;;;;;;;21.52;9.77;;;;;;;1.84;100.00;97385.69;5047680;28;20038;-76
2022/01/18 09:43:45;;;;;;;25.27;8.93;;;;;;;1.83;100.00;97378.84;5032522;28;20072;-76
2022/01/18 09:46:11;;;;;;;21.55;8.43;;;;;;;1.99;100.00;97372.00;5050444;28;20044;-75
2022/01/18 09:48:37;;;;;;;23.25;8.27;;;;;;;2.09;100.00;97382.97;5044319;28;20037;-75
2022/01/18 09:51:03;;;;;;;24.02;8.95;;;;;;;1.94;100.00;97389.84;5048908;28;20048;-75
2022/01/18 09:53:29;;;;;;;22.77;7.90;;;;;;;1.86;100.00;97394.09;5049740;28;20664;-74
2022/01/18 09:55:54;;;;;;;23.80;7.72;;;;;;;1.75;100.00;97386.66;5041097;28;20421;-77
2022/01/18 09:58:20;;;;;;;26.10;9.57;;;;;;;1.95;100.00;97387.09;5049032;28;20048;-76
2022/01/18 10:00:48;;;;;;;27.40;10.05;;;;;;;2.12;100.00;97387.84;5048735;28;20045;-77
2022/01/18 10:03:26;;;;;;;33.15;9.07;;;;;;;2.09;100.00;97388.19;5039278;28;20053;-77
2022/01/18 10:05:52;;;;;;;24.38;8.73;;;;;;;2.26;100.00;97383.72;5039829;28;20037;-77
2022/01/18 10:08:19;;;;;;;21.83;8.02;;;;;;;2.34;100.00;97380.25;5046413;28;20426;-77
2022/01/18 10:10:47;;;;;;;22.25;8.15;;;;;;;2.28;100.00;97376.56;5043026;28;20063;-76
2022/01/18 10:13:19;;;;;;;22.65;8.30;;;;;;;2.24;100.00;97370.91;5050716;28;20424;-77
2022/01/18 10:15:57;;;;;;;31.67;9.23;;;;;;;1.97;100.00;97379.13;5048080;28;20090;-77
2022/01/18 10:18:31;;;;;;;20.65;8.82;;;;;;;1.66;100.00;97377.28;5045496;28;20048;-77
2022/01/18 10:20:58;;;;;;;22.60;8.25;;;;;;;1.65;100.00;97370.47;5041354;28;20033;-78
2022/01/18 10:23:24;;;;;;;21.98;9.02;;;;;;;1.70;100.00;97373.41;5038448;28;20045;-76
2022/01/18 10:25:51;;;;;;;21.40;8.40;;;;;;;1.64;100.00;97367.09;5042418;28;20509;-77
2022/01/18 10:28:31;;;;;;;20.67;8.00;;;;;;;1.66;100.00;97361.72;5045727;28;20090;-77
2022/01/18 10:31:00;;;;;;;28.80;9.18;;;;;;;1.65;100.00;97366.13;5043453;28;20080;-76
2022/01/18 10:33:29;;;;;;;22.17;7.95;;;;;;;1.65;100.00;97365.28;5048624;28;20095;-77
2022/01/18 10:36:11;;;;;;;25.52;7.97;;;;;;;1.59;100.00;97371.16;5044106;28;20042;-77
2022/01/18 10:38:39;;;;;;;21.90;8.82;;;;;;;1.66;100.00;97362.53;5042636;28;20045;-77
2022/01/18 10:41:24;;;;;;;29.02;9.27;;;;;;;1.69;100.00;97351.00;5047862;28;20119;-77
2022/01/18 10:44:23;;;;;;;26.95;10.02;;;;;;;1.81;100.00;97346.25;5046832;28;20041;-77
2022/01/18 10:46:50;;;;;;;24.90;8.90;;;;;;;1.76;100.00;97341.56;5023524;28;20056;-75
2022/01/18 10:49:36;;;;;;;22.45;8.45;;;;;;;1.77;100.00;97338.00;5048113;28;20565;-75
2022/01/18 10:52:11;;;;;;;24.90;8.40;;;;;;;1.99;100.00;97330.44;5047979;28;20442;-77
2022/01/18 10:54:44;;;;;;;18.77;7.70;;;;;;;2.16;100.00;97337.16;5034307;28;20087;-76
2022/01/18 10:57:12;;;;;;;19.35;6.72;;;;;;;1.87;100.00;97328.22;5044127;28;20092;-76
2022/01/18 10:59:41;;;;;;;25.63;7.75;;;;;;;1.61;100.00;97317.28;5037291;28;20034;-77
2022/01/18 11:02:15;;;;;;;22.45;7.18;;;;;;;1.70;100.00;97311.09;5051817;28;20051;-77
2022/01/18 11:04:48;;;;;;;24.58;7.32;;;;;;;1.76;100.00;97315.59;5044513;28;20037;-76
2022/01/18 11:07:16;;;;;;;17.88;7.18;;;;;;;1.62;100.00;97313.72;5040819;28;20646;-76
2022/01/18 11:09:42;;;;;;;23.20;7.53;;;;;;;1.70;100.00;97306.72;5039926;28;20617;-78
2022/01/18 11:12:09;;;;;;;25.10;7.10;;;;;;;1.61;100.00;97304.31;5048929;28;20045;-79
2022/01/18 11:14:37;;;;;;;23.73;7.63;;;;;;;1.61;100.00;97301.72;5044520;28;20110;-76
2022/01/18 11:17:06;;;;;;;23.33;8.27;;;;;;;1.62;100.00;97308.53;5050861;28;20449;-77
2022/01/18 11:19:34;;;;;;;24.88;7.85;;;;;;;1.61;100.00;97297.34;5040515;28;20494;-77
2022/01/18 11:22:10;;;;;;;18.25;6.47;;;;;;;1.73;100.00;97300.38;5047928;28;20051;-77
2022/01/18 11:24:41;;;;;;;21.90;6.18;;;;;;;1.80;100.00;97290.94;5045132;28;20072;-77
2022/01/18 11:27:12;;;;;;;21.98;6.93;;;;;;;1.75;100.00;97290.63;5045982;28;20036;-76
2022/01/18 11:29:38;;;;;;;17.77;6.50;;;;;;;1.73;100.00;97290.78;5047290;28;20052;-77
2022/01/18 11:32:05;;;;;;;29.17;5.63;;;;;;;1.81;100.00;97277.00;5036886;28;20062;-77
2022/01/18 11:34:57;;;;;;;16.90;5.32;;;;;;;1.84;100.00;97287.03;5045727;28;20045;-75
2022/01/18 11:37:27;;;;;;;15.73;5.45;;;;;;;1.89;100.00;97284.72;5048840;28;20045;-77
2022/01/18 11:39:58;;;;;;;12.48;4.32;;;;;;;2.10;100.00;97280.72;5039362;28;20509;-77
2022/01/18 11:42:37;;;;;;;13.85;4.50;;;;;;;1.97;100.00;97280.44;5048686;28;20095;-79
2022/01/18 11:45:26;;;;;;;12.43;4.38;;;;;;;1.95;99.17;97292.81;5048971;28;20061;-78
2022/01/18 11:48:04;;;;;;;12.60;4.63;;;;;;;1.98;99.19;97289.88;5044898;28;20111;-78
2022/01/18 11:50:37;;;;;;;18.23;4.47;;;;;;;1.90;98.51;97281.16;5050263;28;20079;-78
2022/01/18 11:53:25;;;;;;;8.90;3.60;;;;;;;2.03;98.02;97290.19;5044156;28;20041;-77
2022/01/18 11:55:56;;;;;;;9.98;4.15;;;;;;;2.00;95.41;97280.13;5046232;28;20136;-77
2022/01/18 11:58:22;;;;;;;13.52;4.32;;;;;;;2.17;98.05;97276.47;5047751;28;20049;-78
2022/01/18 12:00:59;;;;;;;15.93;4.50;;;;;;;2.05;93.80;97277.81;5049491;28;20063;-78
2022/01/18 12:03:41;;;;;;;17.67;3.85;;;;;;;2.10;92.87;97272.94;5049720;28;20049;-78
2022/01/18 12:06:06;;;;;;;9.95;3.55;;;;;;;2.22;94.61;97279.31;5045700;28;20049;-77
2022/01/18 12:08:39;;;;;;;14.15;3.78;;;;;;;2.07;95.99;97270.69;5045746;28;20073;-78
2022/01/18 12:11:10;;;;;;;13.30;4.47;;;;;;;2.04;96.06;97278.78;5042702;28;20045;-76
2022/01/18 12:13:40;;;;;;;9.57;3.90;;;;;;;2.10;93.55;97270.34;5045111;28;20078;-75
2022/01/18 12:16:15;;;;;;;11.43;4.18;;;;;;;2.12;92.92;97268.34;5048480;28;20514;-78
2022/01/18 12:19:14;;;;;;;18.73;4.53;;;;;;;2.29;94.22;97263.06;5045375;28;20044;-78
2022/01/18 12:21:44;;;;;;;13.35;4.05;;;;;;;2.21;95.25;97256.13;5036762;28;20068;-79
2022/01/18 12:24:21;;;;;;;15.00;4.50;;;;;;;2.21;94.37;97262.16;5045477;28;20044;-80
2022/01/18 12:26:49;;;;;;;14.82;4.50;;;;;;;2.19;94.63;97258.91;5047665;28;20044;-78
2022/01/18 12:34:25;;;;;;;18.90;4.25;;;;;;;2.35;95.76;97255.38;5040877;28;20068;-79
2022/01/18 12:37:14;;;;;;;12.25;4.55;;;;;;;2.45;94.73;97244.75;5048696;28;20087;-79